createdAt,value
2023-04-16T00:02:01.566Z,7.90
2023-04-16T00:04:28.384Z,7.90
2023-04-16T00:06:55.373Z,7.90
2023-04-16T00:09:22.021Z,7.90
2023-04-16T00:11:48.633Z,7.90
2023-04-16T00:14:15.226Z,7.90
2023-04-16T00:16:41.846Z,7.90
2023-04-16T00:19:08.815Z,7.90
2023-04-16T00:21:35.575Z,7.90
2023-04-16T00:24:02.308Z,7.90
2023-04-16T00:26:28.974Z,7.90
2023-04-16T00:28:55.665Z,7.90
2023-04-16T00:31:31.041Z,7.90
2023-04-16T00:33:59.240Z,7.90
2023-04-16T00:36:27.916Z,7.90
2023-04-16T00:38:56.457Z,7.90
2023-04-16T00:41:23.866Z,7.92
2023-04-16T00:43:51.735Z,8.00
2023-04-16T00:46:24.653Z,8.00
2023-04-16T00:48:54.169Z,8.00
2023-04-16T00:51:21.619Z,8.00
2023-04-16T00:53:48.950Z,8.00
2023-04-16T00:56:17.545Z,8.00
2023-04-16T00:58:45.228Z,8.00
2023-04-16T01:01:14.257Z,8.00
2023-04-16T01:03:46.310Z,8.00
2023-04-16T01:06:14.092Z,8.00
2023-04-16T01:08:40.786Z,8.00
2023-04-16T01:11:07.921Z,8.10
2023-04-16T01:13:39.137Z,8.08
2023-04-16T01:16:08.328Z,8.10
2023-04-16T01:18:36.752Z,8.10
2023-04-16T01:21:04.986Z,8.10
2023-04-16T01:23:31.914Z,8.10
2023-04-16T01:25:58.614Z,8.10
2023-04-16T01:28:25.449Z,8.10
2023-04-16T01:30:52.129Z,8.06
2023-04-16T01:33:37.010Z,8.08
2023-04-16T01:36:04.119Z,8.00
2023-04-16T01:38:30.774Z,8.00
2023-04-16T01:40:59.447Z,8.00
2023-04-16T01:43:26.326Z,8.00
2023-04-16T01:46:20.434Z,8.00
2023-04-16T01:48:48.427Z,8.00
2023-04-16T01:51:15.010Z,8.04
2023-04-16T01:53:41.638Z,8.00
2023-04-16T01:56:08.221Z,8.04
2023-04-16T01:58:35.957Z,8.02
2023-04-16T02:01:02.867Z,8.04
2023-04-16T02:03:31.441Z,8.06
2023-04-16T02:05:58.280Z,8.08
2023-04-16T02:08:25.357Z,8.10
2023-04-16T02:10:52.457Z,8.10
2023-04-16T02:13:19.091Z,8.10
2023-04-16T02:15:49.289Z,8.10
2023-04-16T02:18:20.157Z,8.10
2023-04-16T02:20:49.739Z,8.10
2023-04-16T02:23:17.689Z,8.10
2023-04-16T02:25:46.839Z,8.10
2023-04-16T02:28:16.787Z,8.10
2023-04-16T02:30:45.152Z,8.10
2023-04-16T02:33:12.859Z,8.10
2023-04-16T02:35:43.439Z,8.10
2023-04-16T02:38:10.080Z,8.10
2023-04-16T02:40:37.018Z,8.10
2023-04-16T02:43:03.769Z,8.04
2023-04-16T02:45:31.549Z,8.00
2023-04-16T02:47:58.708Z,8.00
2023-04-16T02:50:25.535Z,8.00
2023-04-16T02:52:52.555Z,8.02
2023-04-16T02:55:19.171Z,8.08
2023-04-16T02:57:45.991Z,8.04
2023-04-16T03:00:13.334Z,8.08
2023-04-16T03:02:40.134Z,8.10
2023-04-16T03:05:08.994Z,8.10
2023-04-16T03:07:35.915Z,8.10
2023-04-16T03:10:02.679Z,8.10
2023-04-16T03:12:29.267Z,8.10
2023-04-16T03:14:56.007Z,8.10
2023-04-16T03:17:22.703Z,8.10
2023-04-16T03:19:50.921Z,8.10
2023-04-16T03:22:19.533Z,8.10
2023-04-16T03:24:46.478Z,8.10
2023-04-16T03:27:13.064Z,8.16
2023-04-16T03:29:39.732Z,8.18
2023-04-16T03:32:07.229Z,8.10
2023-04-16T03:34:33.840Z,8.10
2023-04-16T03:37:00.703Z,8.10
2023-04-16T03:39:27.349Z,8.10
2023-04-16T03:41:53.974Z,8.10
2023-04-16T03:44:20.852Z,8.10
2023-04-16T03:46:47.596Z,8.10
2023-04-16T03:49:14.338Z,8.10
2023-04-16T03:51:41.337Z,8.10
2023-04-16T03:54:08.028Z,8.10
2023-04-16T03:56:34.787Z,8.10
2023-04-16T03:59:01.973Z,8.10
2023-04-16T04:01:28.890Z,8.00
2023-04-16T04:03:55.625Z,8.00
2023-04-16T04:06:22.431Z,8.00
2023-04-16T04:08:49.101Z,8.00
2023-04-16T04:11:16.187Z,8.00
2023-04-16T04:13:43.213Z,8.00
2023-04-16T04:16:09.918Z,8.00
2023-04-16T04:18:37.171Z,8.00
2023-04-16T04:21:09.798Z,8.00
2023-04-16T04:23:37.044Z,8.00
2023-04-16T04:26:05.878Z,8.00
2023-04-16T04:28:34.399Z,8.00
2023-04-16T04:31:02.174Z,7.98
2023-04-16T04:33:30.168Z,8.00
2023-04-16T04:35:57.204Z,8.00
2023-04-16T04:38:25.345Z,8.00
2023-04-16T04:40:53.053Z,8.00
2023-04-16T04:43:20.992Z,8.00
2023-04-16T04:45:49.316Z,8.00
2023-04-16T04:48:16.893Z,8.10
2023-04-16T04:50:46.406Z,8.08
2023-04-16T04:53:14.983Z,8.06
2023-04-16T04:55:42.053Z,8.10
2023-04-16T04:58:09.140Z,8.10
2023-04-16T05:00:37.115Z,8.10
2023-04-16T05:03:09.648Z,8.10
2023-04-16T05:05:36.309Z,8.10
2023-04-16T05:08:03.048Z,8.10
2023-04-16T05:10:29.619Z,8.10
2023-04-16T05:12:56.443Z,8.10
2023-04-16T05:15:23.370Z,8.10
2023-04-16T05:17:49.960Z,8.10
2023-04-16T05:20:16.849Z,8.14
2023-04-16T05:22:43.452Z,8.18
2023-04-16T05:25:10.378Z,8.20
2023-04-16T05:27:37.280Z,8.20
2023-04-16T05:30:04.801Z,8.20
2023-04-16T05:32:31.468Z,8.20
2023-04-16T05:34:58.151Z,8.20
2023-04-16T05:37:24.823Z,8.20
2023-04-16T05:39:51.434Z,8.20
2023-04-16T05:42:18.251Z,8.24
2023-04-16T05:44:44.833Z,8.20
2023-04-16T05:47:11.434Z,8.20
2023-04-16T05:49:38.104Z,8.20
2023-04-16T05:52:05.696Z,8.20
2023-04-16T05:54:32.272Z,8.24
2023-04-16T05:57:02.105Z,8.24
2023-04-16T05:59:29.322Z,8.28
2023-04-16T06:01:56.180Z,8.30
2023-04-16T06:04:23.017Z,8.30
2023-04-16T06:06:49.578Z,8.30
2023-04-16T06:09:16.669Z,8.30
2023-04-16T06:11:43.308Z,8.30
2023-04-16T06:14:09.933Z,8.30
2023-04-16T06:16:36.538Z,8.30
2023-04-16T06:19:03.103Z,8.30
2023-04-16T06:21:29.901Z,8.30
2023-04-16T06:23:56.528Z,8.30
2023-04-16T06:26:23.196Z,8.28
2023-04-16T06:28:50.515Z,8.30
2023-04-16T06:31:17.200Z,8.30
2023-04-16T06:33:43.960Z,8.30
2023-04-16T06:36:11.539Z,8.30
2023-04-16T06:38:38.482Z,8.30
2023-04-16T06:41:05.813Z,8.34
2023-04-16T06:43:33.808Z,8.40
2023-04-16T06:46:00.711Z,8.40
2023-04-16T06:48:28.089Z,8.40
2023-04-16T06:50:56.159Z,8.40
2023-04-16T06:53:23.796Z,8.40
2023-04-16T06:55:50.433Z,8.40
2023-04-16T06:58:17.000Z,8.40
2023-04-16T07:00:43.659Z,8.40
2023-04-16T07:03:10.653Z,8.40
2023-04-16T07:05:37.393Z,8.40
2023-04-16T07:08:04.090Z,8.40
2023-04-16T07:10:31.308Z,8.40
2023-04-16T07:12:58.023Z,8.40
2023-04-16T07:15:24.739Z,8.44
2023-04-16T07:17:51.370Z,8.40
2023-04-16T07:20:18.228Z,8.40
2023-04-16T07:22:45.012Z,8.40
2023-04-16T07:25:11.627Z,8.40
2023-04-16T07:27:38.231Z,8.42
2023-04-16T07:30:06.130Z,8.42
2023-04-16T07:32:32.811Z,8.50
2023-04-16T07:34:59.602Z,8.50
2023-04-16T07:37:26.279Z,8.50
2023-04-16T07:39:53.160Z,8.50
2023-04-16T07:42:19.864Z,8.50
2023-04-16T07:44:46.476Z,8.50
2023-04-16T07:47:13.061Z,8.50
2023-04-16T07:49:39.780Z,8.60
2023-04-16T07:52:06.593Z,8.60
2023-04-16T07:54:33.318Z,8.60
2023-04-16T07:56:59.961Z,8.70
2023-04-16T07:59:26.760Z,8.70
2023-04-16T08:01:54.383Z,8.70
2023-04-16T08:04:25.706Z,8.70
2023-04-16T08:06:53.854Z,8.70
2023-04-16T08:09:23.621Z,8.80
2023-04-16T08:11:50.769Z,8.80
2023-04-16T08:14:17.831Z,8.90
2023-04-16T08:16:44.511Z,9.00
2023-04-16T08:19:11.342Z,9.00
2023-04-16T08:21:38.180Z,9.10
2023-04-16T08:24:05.490Z,9.10
2023-04-16T08:26:32.095Z,9.20
2023-04-16T08:28:58.742Z,9.20
2023-04-16T08:31:25.601Z,9.20
2023-04-16T08:33:52.324Z,9.30
2023-04-16T08:36:19.008Z,9.40
2023-04-16T08:38:45.660Z,9.50
2023-04-16T08:41:14.117Z,9.62
2023-04-16T08:43:47.523Z,9.80
2023-04-16T08:46:17.711Z,9.88
2023-04-16T08:48:50.081Z,10.00
2023-04-16T08:51:20.016Z,10.12
2023-04-16T08:53:53.690Z,10.20
2023-04-16T08:56:24.058Z,10.40
2023-04-16T08:58:54.897Z,10.50
2023-04-16T09:01:22.244Z,10.50
2023-04-16T09:03:49.410Z,10.60
2023-04-16T09:06:18.287Z,10.60
2023-04-16T09:08:48.853Z,10.60
2023-04-16T09:11:18.191Z,10.60
2023-04-16T09:13:47.041Z,10.60
2023-04-16T09:16:15.318Z,10.70
2023-04-16T09:18:42.361Z,10.80
2023-04-16T09:21:13.534Z,10.80
2023-04-16T09:23:41.189Z,10.70
2023-04-16T09:26:07.790Z,10.60
2023-04-16T09:28:48.910Z,10.50
2023-04-16T09:31:19.436Z,10.50
2023-04-16T09:34:09.648Z,10.40
2023-04-16T09:36:37.106Z,10.30
2023-04-16T09:39:04.236Z,10.30
2023-04-16T09:41:35.999Z,10.26
2023-04-16T09:44:05.215Z,10.20
2023-04-16T09:46:36.245Z,10.20
2023-04-16T09:49:17.104Z,10.20
2023-04-16T09:51:47.234Z,10.20
2023-04-16T09:54:14.075Z,10.22
2023-04-16T09:56:44.848Z,10.30
2023-04-16T09:59:22.516Z,10.30
2023-04-16T10:01:51.029Z,10.40
2023-04-16T10:04:17.853Z,10.40
2023-04-16T10:06:46.935Z,10.40
2023-04-16T10:09:13.548Z,10.40
2023-04-16T10:11:40.623Z,10.48
2023-04-16T10:14:07.364Z,10.50
2023-04-16T10:16:35.289Z,10.50
2023-04-16T10:19:02.397Z,10.50
2023-04-16T10:21:34.064Z,10.50
2023-04-16T10:24:01.893Z,10.56
2023-04-16T10:26:31.080Z,10.60
2023-04-16T10:28:59.492Z,10.60
2023-04-16T10:31:27.834Z,10.70
2023-04-16T10:33:56.253Z,10.80
2023-04-16T10:36:26.339Z,10.96
2023-04-16T10:38:59.893Z,11.18
2023-04-16T10:41:27.522Z,11.30
2023-04-16T10:44:11.294Z,11.40
2023-04-16T10:46:41.339Z,11.50
2023-04-16T10:49:17.910Z,11.50
2023-04-16T10:51:59.722Z,11.52
2023-04-16T10:54:31.199Z,11.58
2023-04-16T10:57:05.989Z,11.60
2023-04-16T10:59:38.466Z,11.70
2023-04-16T11:02:13.744Z,11.80
2023-04-16T11:04:45.787Z,11.88
2023-04-16T11:07:18.531Z,11.98
2023-04-16T11:09:46.764Z,12.14
2023-04-16T11:12:16.459Z,12.20
2023-04-16T11:14:48.297Z,12.22
2023-04-16T11:17:14.943Z,12.30
2023-04-16T11:19:43.827Z,12.40
2023-04-16T11:22:17.006Z,12.40
2023-04-16T11:24:46.267Z,12.54
2023-04-16T11:27:15.300Z,12.74
2023-04-16T11:29:43.542Z,12.98
2023-04-16T11:32:22.703Z,13.20
2023-04-16T11:34:49.442Z,13.32
2023-04-16T11:37:20.241Z,13.50
2023-04-16T11:39:52.544Z,13.70
2023-04-16T11:42:22.854Z,13.80
2023-04-16T11:44:58.003Z,13.88
2023-04-16T11:47:25.069Z,13.90
2023-04-16T11:49:51.734Z,13.80
2023-04-16T11:52:33.713Z,13.80
2023-04-16T11:55:00.368Z,13.70
2023-04-16T11:57:32.098Z,13.76
2023-04-16T12:00:01.685Z,13.88
2023-04-16T12:02:42.326Z,14.00
2023-04-16T12:05:32.254Z,14.00
2023-04-16T12:08:04.555Z,13.94
2023-04-16T12:10:35.496Z,14.00
2023-04-16T12:13:12.851Z,14.04
2023-04-16T12:15:51.675Z,14.10
2023-04-16T12:18:26.085Z,14.14
2023-04-16T12:20:53.124Z,14.20
2023-04-16T12:23:29.714Z,14.20
2023-04-16T12:26:02.536Z,14.30
2023-04-16T12:28:34.877Z,14.42
2023-04-16T12:31:03.243Z,14.58
2023-04-16T12:33:30.807Z,14.64
2023-04-16T12:35:57.614Z,14.70
2023-04-16T12:38:25.591Z,14.70
2023-04-16T12:40:56.510Z,14.80
2023-04-16T12:43:24.050Z,14.90
2023-04-16T12:45:50.974Z,15.10
2023-04-16T12:48:17.662Z,15.20
2023-04-16T12:50:44.610Z,15.28
2023-04-16T12:53:12.024Z,15.30
2023-04-16T12:55:38.802Z,15.30
2023-04-16T12:58:05.777Z,15.30
2023-04-16T13:00:32.824Z,15.18
2023-04-16T13:02:59.494Z,15.08
2023-04-16T13:05:27.113Z,14.90
2023-04-16T13:07:54.161Z,14.70
2023-04-16T13:10:22.091Z,14.60
2023-04-16T13:12:49.154Z,14.50
2023-04-16T13:15:16.182Z,14.50
2023-04-16T13:17:42.870Z,14.40
2023-04-16T13:20:10.524Z,14.38
2023-04-16T13:22:37.544Z,14.40
2023-04-16T13:25:05.125Z,14.42
2023-04-16T13:27:32.647Z,14.50
2023-04-16T13:29:59.342Z,14.60
2023-04-16T13:32:26.007Z,14.70
2023-04-16T13:34:52.689Z,14.70
2023-04-16T13:37:19.340Z,14.70
2023-04-16T13:39:45.942Z,14.70
2023-04-16T13:42:12.520Z,14.74
2023-04-16T13:44:39.094Z,14.80
2023-04-16T13:47:06.338Z,14.90
2023-04-16T13:49:35.925Z,15.00
2023-04-16T13:52:03.362Z,15.08
2023-04-16T13:54:29.993Z,15.10
2023-04-16T13:56:56.902Z,15.20
2023-04-16T13:59:23.577Z,15.20
2023-04-16T14:01:51.048Z,15.20
2023-04-16T14:04:18.308Z,15.10
2023-04-16T14:06:45.239Z,15.10
2023-04-16T14:09:11.953Z,15.10
2023-04-16T14:11:38.818Z,15.10
2023-04-16T14:14:06.060Z,15.10
2023-04-16T14:16:33.781Z,15.10
2023-04-16T14:19:00.445Z,15.10
2023-04-16T14:21:27.362Z,15.20
2023-04-16T14:23:54.114Z,15.20
2023-04-16T14:26:20.718Z,15.20
2023-04-16T14:28:48.016Z,15.04
2023-04-16T14:31:14.855Z,14.82
2023-04-16T14:33:41.563Z,14.70
2023-04-16T14:36:08.298Z,14.60
2023-04-16T14:38:35.031Z,14.50
2023-04-16T14:41:01.742Z,14.48
2023-04-16T14:43:28.463Z,14.40
2023-04-16T14:45:55.191Z,14.30
2023-04-16T14:48:22.209Z,14.40
2023-04-16T14:50:49.043Z,14.30
2023-04-16T14:53:16.005Z,14.30
2023-04-16T14:55:42.703Z,14.38
2023-04-16T14:58:10.808Z,14.40
2023-04-16T15:00:37.829Z,14.40
2023-04-16T15:03:05.880Z,14.44
2023-04-16T15:05:32.908Z,14.50
2023-04-16T15:08:00.500Z,14.56
2023-04-16T15:10:27.480Z,14.58
2023-04-16T15:12:54.249Z,14.60
2023-04-16T15:15:21.469Z,14.60
2023-04-16T15:17:50.406Z,14.62
2023-04-16T15:20:17.580Z,14.70
2023-04-16T15:22:44.316Z,14.90
2023-04-16T15:25:11.478Z,15.04
2023-04-16T15:27:38.139Z,15.20
2023-04-16T15:30:06.484Z,15.32
2023-04-16T15:32:33.213Z,15.42
2023-04-16T15:35:03.398Z,15.60
2023-04-16T15:37:30.273Z,15.68
2023-04-16T15:39:57.296Z,15.80
2023-04-16T15:42:24.698Z,15.80
2023-04-16T15:44:51.376Z,15.80
2023-04-16T15:47:18.084Z,15.80
2023-04-16T15:49:44.909Z,15.80
2023-04-16T15:52:12.173Z,15.74
2023-04-16T15:54:39.037Z,15.70
2023-04-16T15:57:06.469Z,15.70
2023-04-16T15:59:33.089Z,15.68
2023-04-16T16:01:59.859Z,15.52
2023-04-16T16:04:28.266Z,15.40
2023-04-16T16:06:55.661Z,15.30
2023-04-16T16:09:26.455Z,15.20
2023-04-16T16:11:54.450Z,15.10
2023-04-16T16:14:23.049Z,14.90
2023-04-16T16:16:49.681Z,14.80
2023-04-16T16:19:19.104Z,14.70
2023-04-16T16:21:45.930Z,14.60
2023-04-16T16:24:12.587Z,14.50
2023-04-16T16:26:39.384Z,14.40
2023-04-16T16:29:07.152Z,14.30
2023-04-16T16:31:33.948Z,14.20
2023-04-16T16:34:01.200Z,14.20
2023-04-16T16:36:29.678Z,14.00
2023-04-16T16:38:57.328Z,13.96
2023-04-16T16:41:24.490Z,13.90
2023-04-16T16:43:51.416Z,13.90
2023-04-16T16:46:18.095Z,13.80
2023-04-16T16:48:44.750Z,13.70
2023-04-16T16:51:11.634Z,13.70
2023-04-16T16:53:38.316Z,13.60
2023-04-16T16:56:05.690Z,13.60
2023-04-16T16:58:33.668Z,13.56
2023-04-16T17:01:00.434Z,13.50
2023-04-16T17:03:27.145Z,13.50
2023-04-16T17:05:54.240Z,13.44
2023-04-16T17:08:20.853Z,13.38
2023-04-16T17:10:48.011Z,13.34
2023-04-16T17:13:19.566Z,13.30
2023-04-16T17:15:46.978Z,13.28
2023-04-16T17:18:13.843Z,13.20
2023-04-16T17:20:41.023Z,13.20
2023-04-16T17:23:08.078Z,13.10
2023-04-16T17:25:35.083Z,13.10
2023-04-16T17:28:02.761Z,13.10
2023-04-16T17:30:31.696Z,13.00
2023-04-16T17:32:58.434Z,13.00
2023-04-16T17:35:25.341Z,12.90
2023-04-16T17:37:52.260Z,12.86
2023-04-16T17:40:19.303Z,12.78
2023-04-16T17:42:46.178Z,12.70
2023-04-16T17:45:13.031Z,12.60
2023-04-16T17:47:39.780Z,12.50
2023-04-16T17:50:08.645Z,12.40
2023-04-16T17:52:35.488Z,12.20
2023-04-16T17:55:03.551Z,12.10
2023-04-16T17:57:30.805Z,12.00
2023-04-16T17:59:57.625Z,11.90
2023-04-16T18:02:24.530Z,11.82
2023-04-16T18:04:51.987Z,11.78
2023-04-16T18:07:19.411Z,11.70
2023-04-16T18:09:46.058Z,11.60
2023-04-16T18:12:12.670Z,11.52
2023-04-16T18:14:40.749Z,11.50
2023-04-16T18:17:07.562Z,11.42
2023-04-16T18:19:35.474Z,11.40
2023-04-16T18:22:02.566Z,11.40
2023-04-16T18:24:29.289Z,11.30
2023-04-16T18:26:56.723Z,11.30
2023-04-16T18:29:25.265Z,11.30
2023-04-16T18:31:52.421Z,11.20
2023-04-16T18:34:19.308Z,11.20
2023-04-16T18:36:46.199Z,11.20
2023-04-16T18:39:12.947Z,11.10
2023-04-16T18:41:43.632Z,11.10
2023-04-16T18:44:13.202Z,11.00
2023-04-16T18:46:39.883Z,11.00
2023-04-16T18:49:06.604Z,10.90
2023-04-16T18:51:33.221Z,10.90
2023-04-16T18:53:59.826Z,10.90
2023-04-16T18:56:29.228Z,10.90
2023-04-16T18:58:55.814Z,10.80
2023-04-16T19:01:22.586Z,10.80
2023-04-16T19:03:49.348Z,10.80
2023-04-16T19:06:15.952Z,10.80
2023-04-16T19:08:42.544Z,10.80
2023-04-16T19:11:09.157Z,10.76
2023-04-16T19:13:36.549Z,10.70
2023-04-16T19:16:05.991Z,10.70
2023-04-16T19:18:33.184Z,10.70
2023-04-16T19:21:03.142Z,10.70
2023-04-16T19:23:29.940Z,10.68
2023-04-16T19:25:57.038Z,10.70
2023-04-16T19:28:25.475Z,10.70
2023-04-16T19:30:53.854Z,10.70
2023-04-16T19:33:20.693Z,10.68
2023-04-16T19:35:47.379Z,10.60
2023-04-16T19:38:14.129Z,10.60
2023-04-16T19:40:44.431Z,10.50
2023-04-16T19:43:11.011Z,10.50
2023-04-16T19:45:47.475Z,10.44
2023-04-16T19:48:14.570Z,10.40
2023-04-16T19:50:42.612Z,10.36
2023-04-16T19:53:09.595Z,10.30
2023-04-16T19:55:36.832Z,10.30
2023-04-16T19:58:06.601Z,10.20
2023-04-16T20:00:36.382Z,10.20
2023-04-16T20:03:04.973Z,10.18
2023-04-16T20:05:31.868Z,10.18
2023-04-16T20:07:58.576Z,10.10
2023-04-16T20:10:26.489Z,10.10
2023-04-16T20:12:53.342Z,10.10
2023-04-16T20:15:20.282Z,10.10
2023-04-16T20:17:47.081Z,10.10
2023-04-16T20:20:15.801Z,10.10
2023-04-16T20:22:43.732Z,10.10
2023-04-16T20:25:11.670Z,10.18
2023-04-16T20:27:38.381Z,10.16
2023-04-16T20:30:06.227Z,10.14
2023-04-16T20:32:33.112Z,10.18
2023-04-16T20:34:59.929Z,10.20
2023-04-16T20:37:29.157Z,10.20
2023-04-16T20:39:56.413Z,10.20
2023-04-16T20:42:26.261Z,10.20
2023-04-16T20:44:56.520Z,10.20
2023-04-16T20:47:23.771Z,10.20
2023-04-16T20:49:50.624Z,10.20
2023-04-16T20:52:17.213Z,10.20
2023-04-16T20:54:44.414Z,10.20
2023-04-16T20:57:11.083Z,10.20
2023-04-16T20:59:37.677Z,10.20
2023-04-16T21:02:05.397Z,10.20
2023-04-16T21:04:32.314Z,10.20
2023-04-16T21:07:03.100Z,10.20
2023-04-16T21:09:30.950Z,10.20
2023-04-16T21:11:57.816Z,10.20
2023-04-16T21:14:24.436Z,10.18
2023-04-16T21:16:51.347Z,10.20
2023-04-16T21:19:18.177Z,10.20
2023-04-16T21:21:44.972Z,10.16
2023-04-16T21:24:11.599Z,10.10
2023-04-16T21:26:38.205Z,10.10
2023-04-16T21:29:04.841Z,10.10
2023-04-16T21:31:31.682Z,10.10
2023-04-16T21:33:58.455Z,10.00
2023-04-16T21:36:27.550Z,10.00
2023-04-16T21:38:54.529Z,10.00
2023-04-16T21:41:21.262Z,9.96
2023-04-16T21:43:47.885Z,9.90
2023-04-16T21:46:14.692Z,9.90
2023-04-16T21:48:41.395Z,9.88
2023-04-16T21:51:08.241Z,9.90
2023-04-16T21:53:35.308Z,9.90
2023-04-16T21:56:01.955Z,9.84
2023-04-16T21:58:28.540Z,9.80
2023-04-16T22:00:55.185Z,9.80
2023-04-16T22:03:26.490Z,9.80
2023-04-16T22:06:03.280Z,9.70
2023-04-16T22:08:30.637Z,9.70
2023-04-16T22:11:02.878Z,9.60
2023-04-16T22:13:32.527Z,9.60
2023-04-16T22:16:03.358Z,9.60
2023-04-16T22:18:33.659Z,9.50
2023-04-16T22:21:01.351Z,9.50
2023-04-16T22:23:27.985Z,9.50
2023-04-16T22:25:56.064Z,9.50
2023-04-16T22:28:23.370Z,9.50
2023-04-16T22:30:50.081Z,9.50
2023-04-16T22:33:17.020Z,9.50
2023-04-16T22:35:43.702Z,9.46
2023-04-16T22:38:10.662Z,9.46
2023-04-16T22:40:37.338Z,9.46
2023-04-16T22:43:04.637Z,9.48
2023-04-16T22:45:31.495Z,9.50
2023-04-16T22:47:58.193Z,9.50
2023-04-16T22:50:24.942Z,9.50
2023-04-16T22:52:51.522Z,9.50
2023-04-16T22:55:18.414Z,9.50
2023-04-16T22:57:44.993Z,9.50
2023-04-16T23:00:16.287Z,9.50
2023-04-16T23:02:43.840Z,9.50
2023-04-16T23:05:11.739Z,9.50
2023-04-16T23:07:38.636Z,9.50
2023-04-16T23:10:06.265Z,9.50
2023-04-16T23:12:32.849Z,9.50
2023-04-16T23:15:00.681Z,9.50
2023-04-16T23:17:28.037Z,9.50
2023-04-16T23:19:54.829Z,9.50
2023-04-16T23:22:21.501Z,9.50
2023-04-16T23:24:48.104Z,9.50
2023-04-16T23:27:14.735Z,9.50
2023-04-16T23:29:41.345Z,9.50
2023-04-16T23:32:08.008Z,9.50
2023-04-16T23:34:34.666Z,9.50
2023-04-16T23:37:01.312Z,9.50
2023-04-16T23:39:27.921Z,9.50
2023-04-16T23:41:54.517Z,9.50
2023-04-16T23:44:21.105Z,9.52
2023-04-16T23:46:47.710Z,9.56
2023-04-16T23:49:14.359Z,9.54
2023-04-16T23:51:41.272Z,9.58
2023-04-16T23:54:07.841Z,9.54
2023-04-16T23:56:34.395Z,9.52
2023-04-16T23:59:01.007Z,9.52
